This is the latest recevied weather packets stored in our database for station/object AG1T-20. If no packets are shown the sender has not sent any weather packets the latest 10 day(s).
| Time | Temp. | Humidity | Pressure | Rain* | Wind** | Luminosity | Snow |
|---|---|---|---|---|---|---|---|
| 1787502604 | 25.56° C | 43% | 1023.3 hPa | 0 mm | - | 797 W/m² | - |
| 1787502010 | 25° C | 45% | 1023.3 hPa | 0 mm | - | 786 W/m² | - |
| 1787501405 | 24.44° C | 49% | 1023.3 hPa | 0 mm | - | 773 W/m² | - |
| 1787500804 | 23.89° C | 48% | 1023.3 hPa | 0 mm | - | 762 W/m² | - |
| 1787500205 | 24.44° C | 47% | 1023.8 hPa | 0 mm | - | 770 W/m² | - |
| 1787499605 | 23.33° C | 51% | 1023.8 hPa | 0 mm | - | 743 W/m² | - |
| 1787499004 | 22.22° C | 54% | 1023.8 hPa | 0 mm | - | 697 W/m² | - |
| 1787498404 | 22.22° C | 55% | 1023.8 hPa | 0 mm | - | 669 W/m² | - |
| 1787497805 | 22.22° C | 53% | 1023.8 hPa | 0 mm | - | 637 W/m² | - |
| 1787497204 | 22.78° C | 56% | 1023.8 hPa | 0 mm | - | 604 W/m² | - |
| 1787496605 | 21.67° C | 59% | 1024.1 hPa | 0 mm | - | 575 W/m² | - |
| 1787496005 | 22.22° C | 60% | 1024.1 hPa | 0 mm | - | 541 W/m² | - |
| 1787495404 | 21.11° C | 58% | 1024.1 hPa | 0 mm | - | 511 W/m² | - |
| 1787494804 | 21.11° C | 60% | 1024.1 hPa | 0 mm | - | 478 W/m² | - |
| 1787494205 | 20.56° C | 61% | 1024.1 hPa | 0 mm | - | 441 W/m² | - |
| 1787493604 | 20° C | 64% | 1024.1 hPa | 0 mm | - | 402 W/m² | - |
| 1787493004 | 20° C | 63% | 1023.6 hPa | 0 mm | - | 361 W/m² | - |
| 1787492405 | 19.44° C | 66% | 1023.6 hPa | 0 mm | - | 332 W/m² | - |
| 1787491804 | 17.78° C | 72% | 1023.6 hPa | 0 mm | - | 53 W/m² | - |
| 1787491204 | 17.22° C | 74% | 1023.6 hPa | 0 mm | - | 36 W/m² | - |
| 1787490604 | 17.78° C | 70% | 1023.6 hPa | 0 mm | - | 21 W/m² | - |
| 1787490004 | 18.33° C | 69% | 1023.6 hPa | 0 mm | - | 9 W/m² | - |
| 1787489405 | 17.78° C | 69% | 1023.1 hPa | 0 mm | - | 5 W/m² | - |
| 1787488805 | 17.78° C | 69% | 1023.1 hPa | 0 mm | - | 2 W/m² | - |
| 1787488205 | 18.33° C | 69% | 1023.1 hPa | 0 mm | - | 0 W/m² | - |
* Rain latest hour (hover to see other rain measurements)
** Current wind speed in m/s (hover to see current wind gust speed)